Airfield :
LOGIN :

Register | Disclaimer

   EN    FR    IT 

 










Legend :    VFR   Marginal VFR   IFR   Intensive IFR   Very Intensive IFR
Visi :
Ceiling :
>= 8 km
>= 3000ft
5 to 8 km
1000 to 3000 ft
1500m to 5 km
500 to 1000 ft
800 to 1500m
200 to 500 ft
< 800m
< 200 ft
Symbols :   Thunderstorms  Fog  Heavy snow  Heavy precipitations  Wind > 20 kt
SIGMETs :     Misc.  Thunderstorms  Icing  Turbulence  Mountain Waves  Volcanic Ashes






- Airport Elevation : 12 ft
- IATA code : NCE


LFMN - Nice

CURRENT METAR :
  • 280700Z 35007KT 9999 FEW093 BKN230 10/06 Q1011 NOSIG

EXPIRED METARs :
  • 280630Z 33008KT 9999 SCT093 BKN230 10/06 Q1010 NOSIG
  • 280600Z 32012KT 9999 BKN093 BKN230 10/07 Q1010 NOSIG
  • 280530Z 32011KT 9999 BKN096 BKN230 10/07 Q1010 NOSIG
  • 280500Z 33007KT 9999 BKN076 BKN110 10/07 Q1010 NOSIG
  • 280430Z 33008KT 9999 BKN076 BKN110 10/07 Q1010 NOSIG
  • 280400Z 32007KT 9999 BKN076 BKN110 10/07 Q1009 NOSIG
  • 280330Z 32009KT 9999 BKN046 BKN060 10/07 Q1009 NOSIG
  • 280300Z 33005KT 9999 BKN046 BKN060 10/08 Q1009 NOSIG
  • 280230Z 34004KT 310V030 9999 BKN046 BKN060 10/08 Q1009 NOSIG
  • 280200Z 03009KT 9999 BKN046 BKN060 10/07 Q1009 NOSIG

TAF TAF LFMN
Valid from the 28 at 03:00 until the 29 at 09:00 UTC


280200Z 2803/2909 35010KT 9999 BKN050
TEMPO 2803/2813 08015KT
BECMG 2812/2814 VRB05KT
BECMG 2818/2820 34010KT NSC
ATIS : +33 4 93 17 21 16



MET'MAP, your aeronautical weather chart ! - Copyright ORBIFLY December 2007 - Disclaimer

ORBIFLY MET'MAP TEAM :

Programming & Development : Alexandra Zaïnal
Original concept : Baudouin d'Aumeries
Technical & hardware support : Manuel Goepfert
Assistance : Marc-Olivier Méhu




SOURCES & CREDITS :

   NOAA